sensor_id;sensor_type;location;lat;lon;timestamp;temperature;humidity
1413;DHT22;701;52.526;13.408;2023-02-22T00:00:40;10.00;21.50
1413;DHT22;701;52.526;13.408;2023-02-22T00:03:21;10.00;21.70
1413;DHT22;701;52.526;13.408;2023-02-22T00:08:21;9.90;22.60
1413;DHT22;701;52.526;13.408;2023-02-22T00:10:48;9.90;22.60
1413;DHT22;701;52.526;13.408;2023-02-22T00:13:18;9.90;22.60
1413;DHT22;701;52.526;13.408;2023-02-22T00:15:44;9.90;22.50
1413;DHT22;701;52.526;13.408;2023-02-22T00:18:16;9.90;22.40
1413;DHT22;701;52.526;13.408;2023-02-22T00:20:42;10.00;21.60
1413;DHT22;701;52.526;13.408;2023-02-22T00:23:14;9.90;22.60
1413;DHT22;701;52.526;13.408;2023-02-22T00:25:40;10.00;21.40
1413;DHT22;701;52.526;13.408;2023-02-22T00:28:06;9.90;22.00
1413;DHT22;701;52.526;13.408;2023-02-22T00:30:33;9.90;21.90
1413;DHT22;701;52.526;13.408;2023-02-22T00:32:59;9.90;21.90
1413;DHT22;701;52.526;13.408;2023-02-22T00:35:28;9.90;22.00
1413;DHT22;701;52.526;13.408;2023-02-22T00:37:56;9.90;22.10
1413;DHT22;701;52.526;13.408;2023-02-22T00:40:25;9.90;22.50
1413;DHT22;701;52.526;13.408;2023-02-22T00:42:51;10.00;21.40
1413;DHT22;701;52.526;13.408;2023-02-22T00:45:20;10.00;21.30
1413;DHT22;701;52.526;13.408;2023-02-22T00:47:47;9.90;22.00
1413;DHT22;701;52.526;13.408;2023-02-22T00:50:18;9.90;22.00
1413;DHT22;701;52.526;13.408;2023-02-22T00:52:44;9.90;22.10
1413;DHT22;701;52.526;13.408;2023-02-22T00:55:20;9.90;22.20
1413;DHT22;701;52.526;13.408;2023-02-22T00:57:46;9.80;22.20
1413;DHT22;701;52.526;13.408;2023-02-22T01:00:17;9.70;22.20
1413;DHT22;701;52.526;13.408;2023-02-22T01:02:43;9.60;22.30
1413;DHT22;701;52.526;13.408;2023-02-22T01:05:12;9.50;22.50
1413;DHT22;701;52.526;13.408;2023-02-22T01:07:39;9.40;22.70
1413;DHT22;701;52.526;13.408;2023-02-22T01:10:06;9.30;22.90
1413;DHT22;701;52.526;13.408;2023-02-22T01:12:33;9.30;23.20
1413;DHT22;701;52.526;13.408;2023-02-22T01:15:00;9.20;23.30
1413;DHT22;701;52.526;13.408;2023-02-22T01:17:26;9.10;23.50
1413;DHT22;701;52.526;13.408;2023-02-22T01:19:52;9.10;23.80
1413;DHT22;701;52.526;13.408;2023-02-22T01:22:19;9.10;24.10
1413;DHT22;701;52.526;13.408;2023-02-22T01:24:47;9.00;24.10
1413;DHT22;701;52.526;13.408;2023-02-22T01:27:13;9.00;24.10
1413;DHT22;701;52.526;13.408;2023-02-22T01:29:39;9.00;24.10
1413;DHT22;701;52.526;13.408;2023-02-22T01:32:06;9.00;24.20
1413;DHT22;701;52.526;13.408;2023-02-22T01:34:33;9.00;24.20
1413;DHT22;701;52.526;13.408;2023-02-22T01:36:59;9.00;24.10
1413;DHT22;701;52.526;13.408;2023-02-22T01:39:26;8.90;24.10
1413;DHT22;701;52.526;13.408;2023-02-22T01:41:52;8.90;24.10
1413;DHT22;701;52.526;13.408;2023-02-22T01:44:25;8.80;24.00
1413;DHT22;701;52.526;13.408;2023-02-22T01:46:56;8.70;24.10
1413;DHT22;701;52.526;13.408;2023-02-22T01:49:40;8.60;24.50
1413;DHT22;701;52.526;13.408;2023-02-22T01:52:11;8.60;24.90
1413;DHT22;701;52.526;13.408;2023-02-22T01:54:49;8.60;25.00
1413;DHT22;701;52.526;13.408;2023-02-22T01:59:48;8.50;25.10
1413;DHT22;701;52.526;13.408;2023-02-22T02:02:15;8.60;25.20
1413;DHT22;701;52.526;13.408;2023-02-22T02:04:41;8.50;25.20
1413;DHT22;701;52.526;13.408;2023-02-22T02:07:09;8.50;25.30
1413;DHT22;701;52.526;13.408;2023-02-22T02:12:07;8.50;25.50
1413;DHT22;701;52.526;13.408;2023-02-22T02:14:33;8.50;25.60
1413;DHT22;701;52.526;13.408;2023-02-22T02:17:09;8.40;25.60
1413;DHT22;701;52.526;13.408;2023-02-22T02:28:10;8.30;26.00
1413;DHT22;701;52.526;13.408;2023-02-22T02:33:05;8.30;26.30
1413;DHT22;701;52.526;13.408;2023-02-22T02:38:44;8.20;26.70
1413;DHT22;701;52.526;13.408;2023-02-22T02:43:54;8.30;27.10
1413;DHT22;701;52.526;13.408;2023-02-22T02:48:57;8.30;27.30
1413;DHT22;701;52.526;13.408;2023-02-22T02:51:28;8.30;27.20
1413;DHT22;701;52.526;13.408;2023-02-22T02:53:55;8.30;27.40
1413;DHT22;701;52.526;13.408;2023-02-22T02:56:22;8.30;27.70
1413;DHT22;701;52.526;13.408;2023-02-22T02:58:51;8.30;27.90
1413;DHT22;701;52.526;13.408;2023-02-22T03:04:18;8.30;28.10
1413;DHT22;701;52.526;13.408;2023-02-22T03:13:00;8.20;28.90
1413;DHT22;701;52.526;13.408;2023-02-22T03:18:27;8.30;29.80
1413;DHT22;701;52.526;13.408;2023-02-22T03:26:21;8.30;29.70
1413;DHT22;701;52.526;13.408;2023-02-22T03:28:52;8.30;29.90
1413;DHT22;701;52.526;13.408;2023-02-22T03:31:25;8.40;30.30
1413;DHT22;701;52.526;13.408;2023-02-22T03:34:07;8.40;30.90
1413;DHT22;701;52.526;13.408;2023-02-22T03:36:38;8.50;30.90
1413;DHT22;701;52.526;13.408;2023-02-22T03:39:09;8.50;30.90
1413;DHT22;701;52.526;13.408;2023-02-22T03:41:38;8.60;31.00
1413;DHT22;701;52.526;13.408;2023-02-22T03:44:08;8.70;31.20
1413;DHT22;701;52.526;13.408;2023-02-22T03:46:38;8.70;31.20
1413;DHT22;701;52.526;13.408;2023-02-22T03:49:19;8.80;31.20
1413;DHT22;701;52.526;13.408;2023-02-22T03:51:48;8.80;31.20
1413;DHT22;701;52.526;13.408;2023-02-22T03:54:14;8.90;31.30
1413;DHT22;701;52.526;13.408;2023-02-22T03:56:52;8.90;31.30
1413;DHT22;701;52.526;13.408;2023-02-22T03:59:21;8.90;31.30
1413;DHT22;701;52.526;13.408;2023-02-22T04:01:56;9.00;31.40
1413;DHT22;701;52.526;13.408;2023-02-22T04:04:23;9.00;31.40
1413;DHT22;701;52.526;13.408;2023-02-22T04:06:50;9.00;32.00
1413;DHT22;701;52.526;13.408;2023-02-22T04:09:17;8.90;31.30
1413;DHT22;701;52.526;13.408;2023-02-22T04:11:44;8.90;31.20
1413;DHT22;701;52.526;13.408;2023-02-22T04:14:11;8.90;31.50
1413;DHT22;701;52.526;13.408;2023-02-22T04:16:37;8.90;31.90
1413;DHT22;701;52.526;13.408;2023-02-22T04:19:06;8.80;31.90
1413;DHT22;701;52.526;13.408;2023-02-22T04:21:33;8.80;32.00
1413;DHT22;701;52.526;13.408;2023-02-22T04:24:00;8.70;32.70
1413;DHT22;701;52.526;13.408;2023-02-22T04:26:26;8.60;32.80
1413;DHT22;701;52.526;13.408;2023-02-22T04:28:54;8.50;32.90
1413;DHT22;701;52.526;13.408;2023-02-22T04:31:22;8.50;33.20
1413;DHT22;701;52.526;13.408;2023-02-22T04:33:49;8.40;34.00
1413;DHT22;701;52.526;13.408;2023-02-22T04:36:20;8.30;34.70
1413;DHT22;701;52.526;13.408;2023-02-22T04:38:46;8.20;34.40
1413;DHT22;701;52.526;13.408;2023-02-22T04:41:12;8.20;34.80
1413;DHT22;701;52.526;13.408;2023-02-22T04:43:39;8.10;35.00
1413;DHT22;701;52.526;13.408;2023-02-22T04:46:15;8.10;35.50
1413;DHT22;701;52.526;13.408;2023-02-22T04:48:41;8.10;35.60
1413;DHT22;701;52.526;13.408;2023-02-22T04:51:07;8.20;35.90
1413;DHT22;701;52.526;13.408;2023-02-22T04:53:34;8.20;36.30
1413;DHT22;701;52.526;13.408;2023-02-22T04:56:00;8.20;36.70
1413;DHT22;701;52.526;13.408;2023-02-22T04:58:26;8.20;36.70
1413;DHT22;701;52.526;13.408;2023-02-22T05:00:52;8.20;36.70
1413;DHT22;701;52.526;13.408;2023-02-22T05:03:19;8.20;36.80
1413;DHT22;701;52.526;13.408;2023-02-22T05:05:45;8.20;37.10
1413;DHT22;701;52.526;13.408;2023-02-22T05:08:11;8.20;37.10
1413;DHT22;701;52.526;13.408;2023-02-22T05:10:37;8.20;37.20
1413;DHT22;701;52.526;13.408;2023-02-22T05:13:03;8.20;37.20
1413;DHT22;701;52.526;13.408;2023-02-22T05:15:30;8.20;37.30
1413;DHT22;701;52.526;13.408;2023-02-22T05:17:56;8.20;37.70
1413;DHT22;701;52.526;13.408;2023-02-22T05:20:28;8.20;37.70
1413;DHT22;701;52.526;13.408;2023-02-22T05:22:55;8.20;38.30
1413;DHT22;701;52.526;13.408;2023-02-22T05:25:21;8.30;38.40
1413;DHT22;701;52.526;13.408;2023-02-22T05:27:52;8.30;38.60
1413;DHT22;701;52.526;13.408;2023-02-22T05:30:20;8.30;38.60
1413;DHT22;701;52.526;13.408;2023-02-22T05:32:49;8.40;39.10
1413;DHT22;701;52.526;13.408;2023-02-22T05:35:16;8.40;38.40
1413;DHT22;701;52.526;13.408;2023-02-22T05:37:42;8.50;38.30
1413;DHT22;701;52.526;13.408;2023-02-22T05:40:08;8.50;38.20
1413;DHT22;701;52.526;13.408;2023-02-22T05:42:34;8.60;38.10
1413;DHT22;701;52.526;13.408;2023-02-22T05:45:00;8.60;38.00
1413;DHT22;701;52.526;13.408;2023-02-22T05:47:26;8.70;37.80
1413;DHT22;701;52.526;13.408;2023-02-22T05:49:52;8.70;37.50
1413;DHT22;701;52.526;13.408;2023-02-22T05:52:18;8.80;37.40
1413;DHT22;701;52.526;13.408;2023-02-22T05:54:44;8.80;37.30
1413;DHT22;701;52.526;13.408;2023-02-22T05:57:09;8.90;37.20
1413;DHT22;701;52.526;13.408;2023-02-22T05:59:35;8.90;36.80
1413;DHT22;701;52.526;13.408;2023-02-22T06:02:01;8.90;36.40
1413;DHT22;701;52.526;13.408;2023-02-22T06:04:27;9.00;36.40
1413;DHT22;701;52.526;13.408;2023-02-22T06:06:52;9.00;36.00
1413;DHT22;701;52.526;13.408;2023-02-22T06:09:18;9.10;35.90
1413;DHT22;701;52.526;13.408;2023-02-22T06:11:44;9.10;35.90
1413;DHT22;701;52.526;13.408;2023-02-22T06:14:10;9.20;36.00
1413;DHT22;701;52.526;13.408;2023-02-22T06:16:35;9.20;35.60
1413;DHT22;701;52.526;13.408;2023-02-22T06:19:01;9.20;35.40
1413;DHT22;701;52.526;13.408;2023-02-22T06:21:27;9.20;35.40
1413;DHT22;701;52.526;13.408;2023-02-22T06:23:54;9.20;35.20
1413;DHT22;701;52.526;13.408;2023-02-22T06:26:20;9.30;35.10
1413;DHT22;701;52.526;13.408;2023-02-22T06:28:47;9.30;35.10
1413;DHT22;701;52.526;13.408;2023-02-22T06:31:14;9.30;34.80
1413;DHT22;701;52.526;13.408;2023-02-22T06:33:39;9.30;34.60
1413;DHT22;701;52.526;13.408;2023-02-22T06:36:05;9.30;34.50
1413;DHT22;701;52.526;13.408;2023-02-22T06:38:32;9.40;34.50
1413;DHT22;701;52.526;13.408;2023-02-22T06:40:58;9.40;34.40
1413;DHT22;701;52.526;13.408;2023-02-22T06:43:25;9.40;34.10
1413;DHT22;701;52.526;13.408;2023-02-22T06:45:51;9.40;34.00
1413;DHT22;701;52.526;13.408;2023-02-22T06:48:17;9.40;33.90
1413;DHT22;701;52.526;13.408;2023-02-22T06:50:43;9.40;33.60
1413;DHT22;701;52.526;13.408;2023-02-22T06:53:09;9.40;33.40
1413;DHT22;701;52.526;13.408;2023-02-22T06:55:35;9.50;33.30
1413;DHT22;701;52.526;13.408;2023-02-22T06:58:02;9.50;33.00
1413;DHT22;701;52.526;13.408;2023-02-22T07:00:30;9.50;32.90
1413;DHT22;701;52.526;13.408;2023-02-22T07:02:57;9.60;32.90
1413;DHT22;701;52.526;13.408;2023-02-22T07:05:24;9.60;32.70
1413;DHT22;701;52.526;13.408;2023-02-22T07:07:53;9.70;32.50
1413;DHT22;701;52.526;13.408;2023-02-22T07:10:26;9.80;32.00
1413;DHT22;701;52.526;13.408;2023-02-22T07:12:53;9.80;32.00
1413;DHT22;701;52.526;13.408;2023-02-22T07:15:20;9.90;32.10
1413;DHT22;701;52.526;13.408;2023-02-22T07:17:47;10.00;30.60
1413;DHT22;701;52.526;13.408;2023-02-22T07:20:13;10.00;30.00
1413;DHT22;701;52.526;13.408;2023-02-22T07:22:39;10.10;29.80
1413;DHT22;701;52.526;13.408;2023-02-22T07:25:06;10.20;29.50
1413;DHT22;701;52.526;13.408;2023-02-22T07:27:35;10.20;29.40
1413;DHT22;701;52.526;13.408;2023-02-22T07:30:03;10.30;29.10
1413;DHT22;701;52.526;13.408;2023-02-22T07:32:28;10.40;29.00
1413;DHT22;701;52.526;13.408;2023-02-22T07:34:54;10.40;28.60
1413;DHT22;701;52.526;13.408;2023-02-22T07:37:20;10.50;28.30
1413;DHT22;701;52.526;13.408;2023-02-22T07:39:45;10.60;28.10
1413;DHT22;701;52.526;13.408;2023-02-22T07:42:11;10.60;28.00
1413;DHT22;701;52.526;13.408;2023-02-22T07:44:37;10.70;28.00
1413;DHT22;701;52.526;13.408;2023-02-22T07:47:03;10.70;27.60
1413;DHT22;701;52.526;13.408;2023-02-22T07:49:29;10.80;27.40
1413;DHT22;701;52.526;13.408;2023-02-22T07:51:55;10.80;27.10
1413;DHT22;701;52.526;13.408;2023-02-22T07:54:21;10.80;26.90
1413;DHT22;701;52.526;13.408;2023-02-22T07:56:47;10.80;26.60
1413;DHT22;701;52.526;13.408;2023-02-22T07:59:14;10.80;26.60
1413;DHT22;701;52.526;13.408;2023-02-22T08:01:40;10.80;26.40
1413;DHT22;701;52.526;13.408;2023-02-22T08:04:06;10.80;26.20
1413;DHT22;701;52.526;13.408;2023-02-22T08:06:32;10.80;26.00
1413;DHT22;701;52.526;13.408;2023-02-22T08:08:58;10.80;26.00
1413;DHT22;701;52.526;13.408;2023-02-22T08:11:25;10.90;25.90
1413;DHT22;701;52.526;13.408;2023-02-22T08:13:51;10.80;25.70
1413;DHT22;701;52.526;13.408;2023-02-22T08:16:16;10.90;25.50
1413;DHT22;701;52.526;13.408;2023-02-22T08:18:42;10.90;25.40
1413;DHT22;701;52.526;13.408;2023-02-22T08:21:08;10.90;25.30
1413;DHT22;701;52.526;13.408;2023-02-22T08:23:34;10.90;25.20
1413;DHT22;701;52.526;13.408;2023-02-22T08:26:06;11.00;25.20
1413;DHT22;701;52.526;13.408;2023-02-22T08:28:32;11.00;24.70
1413;DHT22;701;52.526;13.408;2023-02-22T08:30:58;11.10;24.80
1413;DHT22;701;52.526;13.408;2023-02-22T08:33:24;11.10;24.80
1413;DHT22;701;52.526;13.408;2023-02-22T08:35:50;11.20;24.80
1413;DHT22;701;52.526;13.408;2023-02-22T08:38:25;11.20;24.40
1413;DHT22;701;52.526;13.408;2023-02-22T08:40:51;11.30;24.20
1413;DHT22;701;52.526;13.408;2023-02-22T08:43:19;11.40;24.00
1413;DHT22;701;52.526;13.408;2023-02-22T08:45:46;11.40;23.80
1413;DHT22;701;52.526;13.408;2023-02-22T08:48:13;11.40;23.70
1413;DHT22;701;52.526;13.408;2023-02-22T08:50:39;11.50;23.60
1413;DHT22;701;52.526;13.408;2023-02-22T08:53:07;11.50;23.30
1413;DHT22;701;52.526;13.408;2023-02-22T08:55:36;11.60;23.20
1413;DHT22;701;52.526;13.408;2023-02-22T08:58:04;11.60;23.10
1413;DHT22;701;52.526;13.408;2023-02-22T09:00:32;11.70;23.00
1413;DHT22;701;52.526;13.408;2023-02-22T09:03:02;11.70;22.60
1413;DHT22;701;52.526;13.408;2023-02-22T09:05:29;11.80;22.60
1413;DHT22;701;52.526;13.408;2023-02-22T09:07:54;11.90;22.60
1413;DHT22;701;52.526;13.408;2023-02-22T09:10:23;12.00;22.50
1413;DHT22;701;52.526;13.408;2023-02-22T09:12:51;12.00;22.00
1413;DHT22;701;52.526;13.408;2023-02-22T09:15:17;12.10;21.90
1413;DHT22;701;52.526;13.408;2023-02-22T09:17:43;12.20;21.90
1413;DHT22;701;52.526;13.408;2023-02-22T09:20:10;12.30;21.70
1413;DHT22;701;52.526;13.408;2023-02-22T09:22:37;12.30;21.30
1413;DHT22;701;52.526;13.408;2023-02-22T09:25:04;12.40;21.30
1413;DHT22;701;52.526;13.408;2023-02-22T09:27:30;12.50;20.50
1413;DHT22;701;52.526;13.408;2023-02-22T09:29:56;12.60;20.40
1413;DHT22;701;52.526;13.408;2023-02-22T09:32:23;12.70;20.20
1413;DHT22;701;52.526;13.408;2023-02-22T09:34:52;12.80;19.60
1413;DHT22;701;52.526;13.408;2023-02-22T09:37:18;12.80;19.40
1413;DHT22;701;52.526;13.408;2023-02-22T09:39:44;12.80;19.20
1413;DHT22;701;52.526;13.408;2023-02-22T09:42:44;12.90;19.20
1413;DHT22;701;52.526;13.408;2023-02-22T09:45:23;13.00;18.90
1413;DHT22;701;52.526;13.408;2023-02-22T09:47:55;13.00;18.70
1413;DHT22;701;52.526;13.408;2023-02-22T09:50:25;13.00;18.80
1413;DHT22;701;52.526;13.408;2023-02-22T09:52:55;13.10;18.60
1413;DHT22;701;52.526;13.408;2023-02-22T09:55:35;13.10;18.10
1413;DHT22;701;52.526;13.408;2023-02-22T09:58:10;13.00;17.60
1413;DHT22;701;52.526;13.408;2023-02-22T10:00:41;13.10;17.90
1413;DHT22;701;52.526;13.408;2023-02-22T10:06:03;13.20;17.30
1413;DHT22;701;52.526;13.408;2023-02-22T10:08:33;13.30;17.20
1413;DHT22;701;52.526;13.408;2023-02-22T10:13:53;13.30;17.00
1413;DHT22;701;52.526;13.408;2023-02-22T10:16:42;13.30;17.00
1413;DHT22;701;52.526;13.408;2023-02-22T10:27:37;13.10;16.80
1413;DHT22;701;52.526;13.408;2023-02-22T10:30:16;13.20;16.30
1413;DHT22;701;52.526;13.408;2023-02-22T10:32:45;13.30;16.00
1413;DHT22;701;52.526;13.408;2023-02-22T10:35:23;13.50;15.50
1413;DHT22;701;52.526;13.408;2023-02-22T10:37:55;13.60;15.10
1413;DHT22;701;52.526;13.408;2023-02-22T10:40:23;13.80;15.40
1413;DHT22;701;52.526;13.408;2023-02-22T10:42:59;14.00;15.20
1413;DHT22;701;52.526;13.408;2023-02-22T10:45:28;14.20;14.90
1413;DHT22;701;52.526;13.408;2023-02-22T10:48:00;14.30;14.30
1413;DHT22;701;52.526;13.408;2023-02-22T10:50:29;14.50;14.40
1413;DHT22;701;52.526;13.408;2023-02-22T10:52:55;14.60;13.90
1413;DHT22;701;52.526;13.408;2023-02-22T10:55:21;14.80;13.80
1413;DHT22;701;52.526;13.408;2023-02-22T10:57:50;14.90;13.30
1413;DHT22;701;52.526;13.408;2023-02-22T11:00:49;14.90;12.70
1413;DHT22;701;52.526;13.408;2023-02-22T11:03:18;15.00;12.80
1413;DHT22;701;52.526;13.408;2023-02-22T11:05:44;14.90;12.40
1413;DHT22;701;52.526;13.408;2023-02-22T11:08:29;14.80;12.70
1413;DHT22;701;52.526;13.408;2023-02-22T11:11:01;14.70;12.20
1413;DHT22;701;52.526;13.408;2023-02-22T11:13:36;14.60;12.50
1413;DHT22;701;52.526;13.408;2023-02-22T11:18:45;14.50;12.40
1413;DHT22;701;52.526;13.408;2023-02-22T11:21:12;14.50;12.40
1413;DHT22;701;52.526;13.408;2023-02-22T11:23:42;14.60;12.60
1413;DHT22;701;52.526;13.408;2023-02-22T11:26:17;14.60;12.80
1413;DHT22;701;52.526;13.408;2023-02-22T11:28:50;14.60;13.20
1413;DHT22;701;52.526;13.408;2023-02-22T11:31:27;14.50;12.40
1413;DHT22;701;52.526;13.408;2023-02-22T11:33:56;14.50;12.80
1413;DHT22;701;52.526;13.408;2023-02-22T11:36:40;14.40;12.40
1413;DHT22;701;52.526;13.408;2023-02-22T11:39:26;14.30;12.40
1413;DHT22;701;52.526;13.408;2023-02-22T11:41:54;14.10;12.70
1413;DHT22;701;52.526;13.408;2023-02-22T11:44:22;14.00;13.00
1413;DHT22;701;52.526;13.408;2023-02-22T11:46:48;13.90;13.30
1413;DHT22;701;52.526;13.408;2023-02-22T11:49:15;13.80;13.50
1413;DHT22;701;52.526;13.408;2023-02-22T12:00:11;13.90;14.20
1413;DHT22;701;52.526;13.408;2023-02-22T12:03:12;13.90;14.00
1413;DHT22;701;52.526;13.408;2023-02-22T12:08:31;13.80;14.00
1413;DHT22;701;52.526;13.408;2023-02-22T12:14:10;13.70;14.00
1413;DHT22;701;52.526;13.408;2023-02-22T12:19:48;13.70;13.90
1413;DHT22;701;52.526;13.408;2023-02-22T12:27:29;13.70;13.80
1413;DHT22;701;52.526;13.408;2023-02-22T12:30:13;13.60;13.50
1413;DHT22;701;52.526;13.408;2023-02-22T12:32:44;13.60;13.60
1413;DHT22;701;52.526;13.408;2023-02-22T12:35:19;13.60;13.80
1413;DHT22;701;52.526;13.408;2023-02-22T12:40:45;13.60;13.70
1413;DHT22;701;52.526;13.408;2023-02-22T12:48:59;13.90;13.50
1413;DHT22;701;52.526;13.408;2023-02-22T12:54:27;13.90;12.50
1413;DHT22;701;52.526;13.408;2023-02-22T12:59:51;13.80;12.30
1413;DHT22;701;52.526;13.408;2023-02-22T13:02:29;13.80;12.70
1413;DHT22;701;52.526;13.408;2023-02-22T13:04:57;13.80;12.60
1413;DHT22;701;52.526;13.408;2023-02-22T13:12:41;13.60;12.50
1413;DHT22;701;52.526;13.408;2023-02-22T13:15:29;13.50;12.50
1413;DHT22;701;52.526;13.408;2023-02-22T13:18:01;13.50;12.30
1413;DHT22;701;52.526;13.408;2023-02-22T13:20:35;13.50;12.40
1413;DHT22;701;52.526;13.408;2023-02-22T13:36:49;13.20;12.60
1413;DHT22;701;52.526;13.408;2023-02-22T13:42:39;13.20;12.70
1413;DHT22;701;52.526;13.408;2023-02-22T13:53:58;13.30;13.00
1413;DHT22;701;52.526;13.408;2023-02-22T13:56:28;13.30;13.00
1413;DHT22;701;52.526;13.408;2023-02-22T13:58:58;13.20;13.20
1413;DHT22;701;52.526;13.408;2023-02-22T14:01:45;13.20;13.40
1413;DHT22;701;52.526;13.408;2023-02-22T14:04:33;13.20;13.20
1413;DHT22;701;52.526;13.408;2023-02-22T14:07:04;13.10;13.30
1413;DHT22;701;52.526;13.408;2023-02-22T14:17:36;12.80;13.90
1413;DHT22;701;52.526;13.408;2023-02-22T14:22:44;12.80;14.20
1413;DHT22;701;52.526;13.408;2023-02-22T14:25:41;12.90;14.20
1413;DHT22;701;52.526;13.408;2023-02-22T14:28:46;12.90;13.90
1413;DHT22;701;52.526;13.408;2023-02-22T14:39:40;12.90;14.00
1413;DHT22;701;52.526;13.408;2023-02-22T14:42:27;12.90;14.00
1413;DHT22;701;52.526;13.408;2023-02-22T14:44:58;12.80;14.00
1413;DHT22;701;52.526;13.408;2023-02-22T14:47:50;12.80;14.00
1413;DHT22;701;52.526;13.408;2023-02-22T14:55:52;12.40;14.80
1413;DHT22;701;52.526;13.408;2023-02-22T14:58:22;12.40;14.80
1413;DHT22;701;52.526;13.408;2023-02-22T15:00:51;12.40;14.80
1413;DHT22;701;52.526;13.408;2023-02-22T15:03:29;12.40;14.80
1413;DHT22;701;52.526;13.408;2023-02-22T15:06:17;12.30;15.00
1413;DHT22;701;52.526;13.408;2023-02-22T15:08:45;12.20;15.20
1413;DHT22;701;52.526;13.408;2023-02-22T15:11:28;12.20;15.40
1413;DHT22;701;52.526;13.408;2023-02-22T15:13:57;12.10;15.80
1413;DHT22;701;52.526;13.408;2023-02-22T15:16:26;12.10;15.80
1413;DHT22;701;52.526;13.408;2023-02-22T15:18:58;12.10;15.90
1413;DHT22;701;52.526;13.408;2023-02-22T15:21:26;12.00;16.00
1413;DHT22;701;52.526;13.408;2023-02-22T15:24:02;11.90;16.30
1413;DHT22;701;52.526;13.408;2023-02-22T15:26:40;11.90;16.70
1413;DHT22;701;52.526;13.408;2023-02-22T15:29:17;11.90;16.70
1413;DHT22;701;52.526;13.408;2023-02-22T15:31:44;11.80;17.00
1413;DHT22;701;52.526;13.408;2023-02-22T15:36:44;11.70;17.60
1413;DHT22;701;52.526;13.408;2023-02-22T15:39:32;11.60;17.90
1413;DHT22;701;52.526;13.408;2023-02-22T15:42:08;11.60;17.90
1413;DHT22;701;52.526;13.408;2023-02-22T15:44:39;11.60;17.90
1413;DHT22;701;52.526;13.408;2023-02-22T15:47:15;11.50;17.80
1413;DHT22;701;52.526;13.408;2023-02-22T15:49:41;11.50;17.90
1413;DHT22;701;52.526;13.408;2023-02-22T15:52:17;11.40;17.80
1413;DHT22;701;52.526;13.408;2023-02-22T15:54:49;11.40;18.40
1413;DHT22;701;52.526;13.408;2023-02-22T15:57:19;11.40;18.40
1413;DHT22;701;52.526;13.408;2023-02-22T15:59:51;11.40;18.50
1413;DHT22;701;52.526;13.408;2023-02-22T16:02:33;11.30;18.90
1413;DHT22;701;52.526;13.408;2023-02-22T16:05:06;11.20;19.00
1413;DHT22;701;52.526;13.408;2023-02-22T16:07:37;11.20;19.20
1413;DHT22;701;52.526;13.408;2023-02-22T16:10:04;11.20;19.20
1413;DHT22;701;52.526;13.408;2023-02-22T16:12:34;11.10;19.30
1413;DHT22;701;52.526;13.408;2023-02-22T16:15:00;11.10;19.40
1413;DHT22;701;52.526;13.408;2023-02-22T16:22:40;11.00;19.70
1413;DHT22;701;52.526;13.408;2023-02-22T16:30:38;10.80;19.70
1413;DHT22;701;52.526;13.408;2023-02-22T16:33:09;10.80;19.70
1413;DHT22;701;52.526;13.408;2023-02-22T16:35:39;10.70;19.80
1413;DHT22;701;52.526;13.408;2023-02-22T16:38:06;10.70;19.90
1413;DHT22;701;52.526;13.408;2023-02-22T16:40:38;10.60;20.10
1413;DHT22;701;52.526;13.408;2023-02-22T16:43:07;10.50;20.20
1413;DHT22;701;52.526;13.408;2023-02-22T16:45:36;10.40;20.30
1413;DHT22;701;52.526;13.408;2023-02-22T16:48:24;10.40;20.60
1413;DHT22;701;52.526;13.408;2023-02-22T16:50:51;10.30;20.70
1413;DHT22;701;52.526;13.408;2023-02-22T16:53:20;10.20;20.60
1413;DHT22;701;52.526;13.408;2023-02-22T16:55:47;10.20;21.20
1413;DHT22;701;52.526;13.408;2023-02-22T16:58:14;10.10;21.60
1413;DHT22;701;52.526;13.408;2023-02-22T17:00:40;10.00;21.60
1413;DHT22;701;52.526;13.408;2023-02-22T17:03:14;10.00;21.70
1413;DHT22;701;52.526;13.408;2023-02-22T17:05:40;9.90;23.00
1413;DHT22;701;52.526;13.408;2023-02-22T17:08:06;9.80;22.90
1413;DHT22;701;52.526;13.408;2023-02-22T17:10:32;9.80;23.40
1413;DHT22;701;52.526;13.408;2023-02-22T17:12:59;9.70;23.60
1413;DHT22;701;52.526;13.408;2023-02-22T17:15:28;9.70;24.00
1413;DHT22;701;52.526;13.408;2023-02-22T17:17:55;9.60;24.50
1413;DHT22;701;52.526;13.408;2023-02-22T17:20:22;9.60;24.20
1413;DHT22;701;52.526;13.408;2023-02-22T17:23:01;9.50;24.40
1413;DHT22;701;52.526;13.408;2023-02-22T17:25:31;9.50;24.40
1413;DHT22;701;52.526;13.408;2023-02-22T17:27:57;9.50;24.40
1413;DHT22;701;52.526;13.408;2023-02-22T17:30:24;9.40;24.40
1413;DHT22;701;52.526;13.408;2023-02-22T17:32:51;9.40;24.80
1413;DHT22;701;52.526;13.408;2023-02-22T17:35:19;9.40;24.70
1413;DHT22;701;52.526;13.408;2023-02-22T17:37:46;9.30;25.10
1413;DHT22;701;52.526;13.408;2023-02-22T17:40:12;9.30;25.20
1413;DHT22;701;52.526;13.408;2023-02-22T17:42:42;9.30;25.60
1413;DHT22;701;52.526;13.408;2023-02-22T17:45:09;9.20;25.40
1413;DHT22;701;52.526;13.408;2023-02-22T17:47:42;9.20;25.50
1413;DHT22;701;52.526;13.408;2023-02-22T17:50:10;9.20;25.70
1413;DHT22;701;52.526;13.408;2023-02-22T17:52:36;9.10;25.70
1413;DHT22;701;52.526;13.408;2023-02-22T17:55:03;9.20;25.70
1413;DHT22;701;52.526;13.408;2023-02-22T17:57:29;9.10;26.00
1413;DHT22;701;52.526;13.408;2023-02-22T17:59:56;9.10;26.10
1413;DHT22;701;52.526;13.408;2023-02-22T18:02:22;9.10;26.30
1413;DHT22;701;52.526;13.408;2023-02-22T18:04:48;9.00;26.20
1413;DHT22;701;52.526;13.408;2023-02-22T18:07:14;9.00;26.40
1413;DHT22;701;52.526;13.408;2023-02-22T18:09:45;9.00;26.60
1413;DHT22;701;52.526;13.408;2023-02-22T18:12:11;8.90;26.50
1413;DHT22;701;52.526;13.408;2023-02-22T18:14:43;8.90;26.70
1413;DHT22;701;52.526;13.408;2023-02-22T18:17:09;8.90;26.40
1413;DHT22;701;52.526;13.408;2023-02-22T18:19:35;8.90;26.50
1413;DHT22;701;52.526;13.408;2023-02-22T18:22:01;8.90;26.60
1413;DHT22;701;52.526;13.408;2023-02-22T18:24:30;8.90;26.70
1413;DHT22;701;52.526;13.408;2023-02-22T18:26:56;8.80;26.70
1413;DHT22;701;52.526;13.408;2023-02-22T18:29:24;8.80;26.90
1413;DHT22;701;52.526;13.408;2023-02-22T18:31:54;8.80;26.90
1413;DHT22;701;52.526;13.408;2023-02-22T18:34:21;8.70;27.30
1413;DHT22;701;52.526;13.408;2023-02-22T18:36:53;8.70;27.40
1413;DHT22;701;52.526;13.408;2023-02-22T18:39:20;8.70;27.40
1413;DHT22;701;52.526;13.408;2023-02-22T18:41:45;8.70;27.50
1413;DHT22;701;52.526;13.408;2023-02-22T18:44:16;8.60;27.40
1413;DHT22;701;52.526;13.408;2023-02-22T18:46:42;8.60;27.40
1413;DHT22;701;52.526;13.408;2023-02-22T18:49:12;8.60;27.40
1413;DHT22;701;52.526;13.408;2023-02-22T18:51:38;8.60;27.40
1413;DHT22;701;52.526;13.408;2023-02-22T18:54:10;8.60;27.40
1413;DHT22;701;52.526;13.408;2023-02-22T18:56:37;8.50;27.40
1413;DHT22;701;52.526;13.408;2023-02-22T18:59:04;8.50;27.30
1413;DHT22;701;52.526;13.408;2023-02-22T19:01:31;8.50;27.60
1413;DHT22;701;52.526;13.408;2023-02-22T19:04:06;8.50;27.60
1413;DHT22;701;52.526;13.408;2023-02-22T19:06:37;8.50;27.40
1413;DHT22;701;52.526;13.408;2023-02-22T19:09:03;8.50;27.40
1413;DHT22;701;52.526;13.408;2023-02-22T19:11:33;8.50;27.30